ANZ224 NZWN-NZAA
Flight info
| Callsign | ANZ224 |
|---|---|
| Flight time | 0h 50m |
| Altitude | 35000 |
| Route | RUSIL Y127 OPABI Q277 DAVEE |
| Aircraft | A320/M-SDE3FGHIRWY/LB1 |
Departure
| Time | 2026-05-08 06:25 |
|---|---|
| Airport | Wellington International Airport (NZWN) |
Arrival
| Time | 2026-05-08 07:16 |
|---|---|
| Airport | Auckland International Airport (NZAA) |
| Time | Latitude | Longitude | Altitude | Speed | Heading |
|---|---|---|---|---|---|
| 2026-05-08 06:05 | -41.33062 | 174.80990 | 27 ft | 0 kts | 14° |
| 2026-05-08 06:15 | -41.33072 | 174.80987 | 26 ft | 4 kts | 10° |
| 2026-05-08 06:15 | -41.33098 | 174.80984 | 26 ft | 4 kts | 1° |
| 2026-05-08 06:15 | -41.33120 | 174.80983 | 26 ft | 4 kts | 4° |
| 2026-05-08 06:15 | -41.33147 | 174.80981 | 26 ft | 4 kts | 4° |
| 2026-05-08 06:16 | -41.33174 | 174.80980 | 26 ft | 4 kts | 3° |
| 2026-05-08 06:16 | -41.33191 | 174.80978 | 26 ft | 0 kts | 3° |
| 2026-05-08 06:20 | -41.33181 | 174.80979 | 26 ft | 3 kts | 2° |
| 2026-05-08 06:20 | -41.33163 | 174.80955 | 26 ft | 5 kts | 292° |
| 2026-05-08 06:20 | -41.33159 | 174.80897 | 26 ft | 7 kts | 272° |
| 2026-05-08 06:20 | -41.33158 | 174.80818 | 26 ft | 10 kts | 263° |
| 2026-05-08 06:21 | -41.33218 | 174.80783 | 26 ft | 12 kts | 184° |
| 2026-05-08 06:21 | -41.33311 | 174.80778 | 26 ft | 15 kts | 182° |
| 2026-05-08 06:21 | -41.33421 | 174.80770 | 26 ft | 17 kts | 182° |
| 2026-05-08 06:21 | -41.33513 | 174.80764 | 26 ft | 7 kts | 189° |
| 2026-05-08 06:22 | -41.33516 | 174.80763 | 26 ft | 0 kts | 193° |
| 2026-05-08 06:22 | -41.33523 | 174.80760 | 26 ft | 0 kts | 196° |
| 2026-05-08 06:23 | -41.33524 | 174.80760 | 26 ft | 1 kts | 196° |
| 2026-05-08 06:23 | -41.33548 | 174.80741 | 26 ft | 6 kts | 219° |
| 2026-05-08 06:23 | -41.33573 | 174.80679 | 26 ft | 9 kts | 262° |
| 2026-05-08 06:24 | -41.33534 | 174.80631 | 26 ft | 9 kts | 0° |
| 2026-05-08 06:24 | -41.33511 | 174.80634 | 26 ft | 0 kts | 5° |
| 2026-05-08 06:24 | -41.33499 | 174.80635 | 26 ft | 15 kts | 5° |
| 2026-05-08 06:24 | -41.33144 | 174.80659 | 27 ft | 82 kts | 3° |
| 2026-05-08 06:25 | -41.32423 | 174.80703 | 98 ft | 120 kts | 2° |
| 2026-05-08 06:25 | -41.31617 | 174.80748 | 710 ft | 117 kts | 3° |
| 2026-05-08 06:25 | -41.30816 | 174.80803 | 1325 ft | 114 kts | 1° |
| 2026-05-08 06:25 | -41.30032 | 174.80859 | 1896 ft | 115 kts | 0° |
| 2026-05-08 06:26 | -41.29166 | 174.80916 | 2152 ft | 135 kts | 360° |
| 2026-05-08 06:26 | -41.28145 | 174.80982 | 2436 ft | 157 kts | 359° |
| 2026-05-08 06:26 | -41.27025 | 174.81055 | 3040 ft | 162 kts | 357° |
| 2026-05-08 06:26 | -41.25918 | 174.80940 | 3869 ft | 159 kts | 347° |
| 2026-05-08 06:27 | -41.24857 | 174.80503 | 4590 ft | 161 kts | 339° |
| 2026-05-08 06:27 | -41.23785 | 174.79879 | 5039 ft | 179 kts | 338° |
| 2026-05-08 06:27 | -41.22528 | 174.79288 | 5447 ft | 203 kts | 342° |
| 2026-05-08 06:27 | -41.21117 | 174.78785 | 5922 ft | 215 kts | 344° |
| 2026-05-08 06:28 | -41.19644 | 174.78291 | 6688 ft | 221 kts | 342° |
| 2026-05-08 06:28 | -41.18148 | 174.77770 | 7550 ft | 224 kts | 341° |
| 2026-05-08 06:28 | -41.16627 | 174.77238 | 8376 ft | 228 kts | 342° |
| 2026-05-08 06:28 | -41.15004 | 174.77147 | 9140 ft | 246 kts | 2° |
| 2026-05-08 06:29 | -41.13311 | 174.77579 | 9974 ft | 248 kts | 359° |
| 2026-05-08 06:29 | -41.11550 | 174.77790 | 10379 ft | 264 kts | 355° |
| 2026-05-08 06:29 | -41.09665 | 174.77898 | 10567 ft | 286 kts | 355° |
| 2026-05-08 06:29 | -41.07597 | 174.77990 | 10721 ft | 309 kts | 355° |
| 2026-05-08 06:30 | -41.05393 | 174.78109 | 11091 ft | 322 kts | 356° |
| 2026-05-08 06:30 | -41.03124 | 174.78268 | 11698 ft | 329 kts | 356° |
| 2026-05-08 06:30 | -41.00826 | 174.78454 | 12298 ft | 334 kts | 357° |
| 2026-05-08 06:30 | -40.98488 | 174.78658 | 12914 ft | 339 kts | 358° |
| 2026-05-08 06:31 | -40.96121 | 174.78871 | 13518 ft | 344 kts | 358° |
| 2026-05-08 06:31 | -40.93718 | 174.79084 | 14055 ft | 348 kts | 357° |
| 2026-05-08 06:31 | -40.91296 | 174.79295 | 14587 ft | 351 kts | 357° |
| 2026-05-08 06:31 | -40.88845 | 174.79505 | 15121 ft | 354 kts | 357° |
| 2026-05-08 06:32 | -40.86375 | 174.79714 | 15653 ft | 358 kts | 357° |
| 2026-05-08 06:32 | -40.83868 | 174.79923 | 16179 ft | 361 kts | 357° |
| 2026-05-08 06:32 | -40.81357 | 174.80132 | 16721 ft | 365 kts | 357° |
| 2026-05-08 06:32 | -40.78814 | 174.80346 | 17249 ft | 368 kts | 358° |
| 2026-05-08 06:33 | -40.76235 | 174.80565 | 17778 ft | 372 kts | 358° |
| 2026-05-08 06:33 | -40.73638 | 174.80787 | 18286 ft | 376 kts | 358° |
| 2026-05-08 06:33 | -40.71021 | 174.81010 | 18784 ft | 379 kts | 358° |
| 2026-05-08 06:33 | -40.68381 | 174.81234 | 19288 ft | 381 kts | 358° |
| 2026-05-08 06:34 | -40.65723 | 174.81446 | 19787 ft | 383 kts | 358° |
| 2026-05-08 06:34 | -40.63051 | 174.81543 | 20277 ft | 385 kts | 356° |
| 2026-05-08 06:34 | -40.60366 | 174.81541 | 20751 ft | 387 kts | 355° |
| 2026-05-08 06:34 | -40.57667 | 174.81487 | 21203 ft | 389 kts | 355° |
| 2026-05-08 06:35 | -40.54944 | 174.81419 | 21651 ft | 391 kts | 355° |
| 2026-05-08 06:35 | -40.52212 | 174.81361 | 22086 ft | 394 kts | 355° |
| 2026-05-08 06:35 | -40.49461 | 174.81321 | 22506 ft | 397 kts | 356° |
| 2026-05-08 06:35 | -40.46693 | 174.81299 | 22921 ft | 399 kts | 356° |
| 2026-05-08 06:36 | -40.43908 | 174.81290 | 23326 ft | 402 kts | 356° |
| 2026-05-08 06:36 | -40.41099 | 174.81285 | 23672 ft | 404 kts | 356° |
| 2026-05-08 06:36 | -40.38284 | 174.81278 | 24032 ft | 405 kts | 356° |
| 2026-05-08 06:36 | -40.35495 | 174.81268 | 24381 ft | 407 kts | 356° |
| 2026-05-08 06:37 | -40.32652 | 174.81257 | 24688 ft | 410 kts | 356° |
| 2026-05-08 06:37 | -40.29792 | 174.81245 | 25040 ft | 412 kts | 356° |
| 2026-05-08 06:37 | -40.26924 | 174.81234 | 25407 ft | 414 kts | 356° |
| 2026-05-08 06:37 | -40.24042 | 174.81223 | 25769 ft | 415 kts | 356° |
| 2026-05-08 06:38 | -40.21141 | 174.81211 | 26126 ft | 417 kts | 356° |
| 2026-05-08 06:38 | -40.18236 | 174.81198 | 26482 ft | 418 kts | 357° |
| 2026-05-08 06:38 | -40.15319 | 174.81185 | 26888 ft | 418 kts | 357° |
| 2026-05-08 06:38 | -40.12422 | 174.81174 | 27393 ft | 416 kts | 357° |
| 2026-05-08 06:39 | -40.09533 | 174.81163 | 27949 ft | 413 kts | 357° |
| 2026-05-08 06:39 | -40.06660 | 174.81154 | 28499 ft | 411 kts | 357° |
| 2026-05-08 06:39 | -40.03811 | 174.81142 | 29043 ft | 409 kts | 357° |
| 2026-05-08 06:39 | -40.00975 | 174.81130 | 29583 ft | 407 kts | 357° |
| 2026-05-08 06:40 | -39.98146 | 174.81117 | 30087 ft | 405 kts | 357° |
| 2026-05-08 06:40 | -39.96283 | 174.81110 | 30398 ft | 403 kts | 357° |
| 2026-05-08 06:40 | -39.93488 | 174.81099 | 30871 ft | 401 kts | 357° |
| 2026-05-08 06:40 | -39.90704 | 174.81087 | 31330 ft | 399 kts | 357° |
| 2026-05-08 06:41 | -39.87940 | 174.81076 | 31813 ft | 397 kts | 357° |
| 2026-05-08 06:41 | -39.85181 | 174.81066 | 32294 ft | 395 kts | 357° |
| 2026-05-08 06:41 | -39.82441 | 174.81055 | 32775 ft | 393 kts | 357° |
| 2026-05-08 06:41 | -39.78832 | 174.81043 | 33401 ft | 390 kts | 357° |
| 2026-05-08 06:42 | -39.76995 | 174.81035 | 33726 ft | 389 kts | 357° |
| 2026-05-08 06:42 | -39.74297 | 174.81023 | 34139 ft | 387 kts | 357° |
| 2026-05-08 06:42 | -39.71603 | 174.81009 | 34478 ft | 387 kts | 356° |
| 2026-05-08 06:42 | -39.68905 | 174.80998 | 34677 ft | 388 kts | 356° |
| 2026-05-08 06:43 | -39.63432 | 174.80974 | 34757 ft | 398 kts | 356° |
| 2026-05-08 06:43 | -39.57874 | 174.80947 | 34757 ft | 400 kts | 356° |
| 2026-05-08 06:44 | -39.52342 | 174.80920 | 34766 ft | 399 kts | 356° |
| 2026-05-08 06:44 | -39.46780 | 174.80898 | 34767 ft | 400 kts | 356° |
| 2026-05-08 06:45 | -39.41188 | 174.80872 | 34774 ft | 402 kts | 355° |
| 2026-05-08 06:45 | -39.35585 | 174.80857 | 34785 ft | 403 kts | 356° |
| 2026-05-08 06:46 | -39.29973 | 174.80842 | 34794 ft | 403 kts | 356° |
| 2026-05-08 06:46 | -39.24363 | 174.80812 | 34800 ft | 403 kts | 356° |
| 2026-05-08 06:47 | -39.18762 | 174.80781 | 34816 ft | 403 kts | 356° |
| 2026-05-08 06:47 | -39.13159 | 174.80763 | 34814 ft | 402 kts | 356° |
| 2026-05-08 06:48 | -39.07605 | 174.80751 | 34827 ft | 402 kts | 356° |
| 2026-05-08 06:48 | -39.02017 | 174.80733 | 34830 ft | 402 kts | 356° |
| 2026-05-08 06:49 | -38.96428 | 174.80712 | 34809 ft | 402 kts | 356° |
| 2026-05-08 06:49 | -38.90830 | 174.80689 | 34810 ft | 402 kts | 356° |
| 2026-05-08 06:50 | -38.85222 | 174.80674 | 34818 ft | 403 kts | 356° |
| 2026-05-08 06:50 | -38.79607 | 174.80659 | 34821 ft | 403 kts | 356° |
| 2026-05-08 06:51 | -38.73987 | 174.80656 | 34800 ft | 403 kts | 356° |
| 2026-05-08 06:51 | -38.68364 | 174.80661 | 34810 ft | 404 kts | 356° |
| 2026-05-08 06:52 | -38.62726 | 174.80654 | 34820 ft | 405 kts | 356° |
| 2026-05-08 06:52 | -38.57123 | 174.80654 | 34824 ft | 405 kts | 356° |
| 2026-05-08 06:53 | -38.51477 | 174.80651 | 34804 ft | 406 kts | 355° |
| 2026-05-08 06:53 | -38.45827 | 174.80645 | 34811 ft | 406 kts | 355° |
| 2026-05-08 06:54 | -38.40165 | 174.80644 | 34820 ft | 407 kts | 355° |
| 2026-05-08 06:54 | -38.34495 | 174.80643 | 34628 ft | 408 kts | 355° |
| 2026-05-08 06:55 | -38.31652 | 174.80644 | 34275 ft | 408 kts | 356° |
| 2026-05-08 06:55 | -38.28801 | 174.80644 | 33451 ft | 411 kts | 356° |
| 2026-05-08 06:55 | -38.25922 | 174.80643 | 32659 ft | 413 kts | 356° |
| 2026-05-08 06:55 | -38.23045 | 174.80642 | 31855 ft | 414 kts | 356° |
| 2026-05-08 06:56 | -38.20154 | 174.80639 | 31004 ft | 417 kts | 356° |
| 2026-05-08 06:56 | -38.17287 | 174.80635 | 30192 ft | 419 kts | 356° |
| 2026-05-08 06:56 | -38.14357 | 174.80631 | 29193 ft | 422 kts | 356° |
| 2026-05-08 06:56 | -38.11413 | 174.80627 | 28204 ft | 424 kts | 356° |
| 2026-05-08 06:57 | -38.08419 | 174.80627 | 27205 ft | 426 kts | 356° |
| 2026-05-08 06:57 | -38.05448 | 174.80631 | 26130 ft | 429 kts | 356° |
| 2026-05-08 06:57 | -38.02492 | 174.80632 | 25049 ft | 432 kts | 356° |
| 2026-05-08 06:57 | -37.99470 | 174.80630 | 23985 ft | 435 kts | 356° |
| 2026-05-08 06:58 | -37.96436 | 174.80629 | 22875 ft | 437 kts | 356° |
| 2026-05-08 06:58 | -37.93413 | 174.80631 | 21995 ft | 431 kts | 356° |
| 2026-05-08 06:58 | -37.90443 | 174.80635 | 21159 ft | 423 kts | 356° |
| 2026-05-08 06:58 | -37.87513 | 174.80638 | 20315 ft | 418 kts | 356° |
| 2026-05-08 06:59 | -37.84618 | 174.80650 | 19433 ft | 415 kts | 356° |
| 2026-05-08 06:59 | -37.81741 | 174.80683 | 18558 ft | 412 kts | 356° |
| 2026-05-08 06:59 | -37.78881 | 174.80725 | 17662 ft | 408 kts | 356° |
| 2026-05-08 06:59 | -37.76099 | 174.80770 | 16770 ft | 393 kts | 356° |
| 2026-05-08 07:00 | -37.73416 | 174.80818 | 16014 ft | 378 kts | 357° |
| 2026-05-08 07:00 | -37.70872 | 174.80863 | 15840 ft | 352 kts | 356° |
| 2026-05-08 07:00 | -37.68513 | 174.80903 | 15702 ft | 328 kts | 356° |
| 2026-05-08 07:00 | -37.66289 | 174.80936 | 15393 ft | 312 kts | 356° |
| 2026-05-08 07:01 | -37.64129 | 174.80959 | 15155 ft | 309 kts | 356° |
| 2026-05-08 07:01 | -37.61988 | 174.80976 | 14915 ft | 307 kts | 356° |
| 2026-05-08 07:01 | -37.59857 | 174.80996 | 14663 ft | 306 kts | 356° |
| 2026-05-08 07:01 | -37.57734 | 174.81019 | 14425 ft | 305 kts | 356° |
| 2026-05-08 07:02 | -37.55613 | 174.81043 | 14191 ft | 304 kts | 357° |
| 2026-05-08 07:02 | -37.53499 | 174.81069 | 13877 ft | 303 kts | 357° |
| 2026-05-08 07:02 | -37.51391 | 174.81095 | 13329 ft | 303 kts | 357° |
| 2026-05-08 07:02 | -37.49296 | 174.81122 | 12871 ft | 299 kts | 357° |
| 2026-05-08 07:03 | -37.47243 | 174.81148 | 12352 ft | 298 kts | 356° |
| 2026-05-08 07:03 | -37.45173 | 174.81173 | 11817 ft | 298 kts | 356° |
| 2026-05-08 07:03 | -37.43098 | 174.81197 | 11275 ft | 298 kts | 357° |
| 2026-05-08 07:03 | -37.41029 | 174.81222 | 10819 ft | 296 kts | 356° |
| 2026-05-08 07:04 | -37.38969 | 174.81247 | 10357 ft | 295 kts | 356° |
| 2026-05-08 07:04 | -37.36956 | 174.81276 | 10235 ft | 282 kts | 356° |
| 2026-05-08 07:04 | -37.35034 | 174.81306 | 10107 ft | 271 kts | 355° |
| 2026-05-08 07:04 | -37.33180 | 174.81334 | 9946 ft | 263 kts | 356° |
| 2026-05-08 07:05 | -37.31372 | 174.81360 | 9792 ft | 256 kts | 355° |
| 2026-05-08 07:05 | -37.29616 | 174.81360 | 9583 ft | 248 kts | 351° |
| 2026-05-08 07:05 | -37.27960 | 174.80885 | 9226 ft | 243 kts | 335° |
| 2026-05-08 07:05 | -37.26520 | 174.79824 | 8894 ft | 241 kts | 320° |
| 2026-05-08 07:06 | -37.25395 | 174.78290 | 8580 ft | 241 kts | 307° |
| 2026-05-08 07:06 | -37.24563 | 174.76461 | 8261 ft | 241 kts | 302° |
| 2026-05-08 07:06 | -37.23751 | 174.74624 | 7961 ft | 239 kts | 303° |
| 2026-05-08 07:06 | -37.22938 | 174.72797 | 7652 ft | 238 kts | 303° |
| 2026-05-08 07:07 | -37.22125 | 174.70968 | 7360 ft | 236 kts | 303° |
| 2026-05-08 07:07 | -37.21338 | 174.69201 | 6965 ft | 235 kts | 303° |
| 2026-05-08 07:07 | -37.20551 | 174.67432 | 6573 ft | 230 kts | 303° |
| 2026-05-08 07:07 | -37.19779 | 174.65695 | 6283 ft | 222 kts | 304° |
| 2026-05-08 07:08 | -37.19056 | 174.64067 | 6104 ft | 206 kts | 304° |
| 2026-05-08 07:08 | -37.18367 | 174.62522 | 5720 ft | 201 kts | 305° |
| 2026-05-08 07:08 | -37.17684 | 174.60999 | 5400 ft | 199 kts | 305° |
| 2026-05-08 07:08 | -37.17006 | 174.59491 | 5328 ft | 200 kts | 306° |
| 2026-05-08 07:09 | -37.16261 | 174.58017 | 5230 ft | 199 kts | 315° |
| 2026-05-08 07:09 | -37.15215 | 174.56912 | 5053 ft | 199 kts | 331° |
| 2026-05-08 07:09 | -37.13948 | 174.56269 | 4796 ft | 191 kts | 341° |
| 2026-05-08 07:09 | -37.12724 | 174.55762 | 4485 ft | 182 kts | 340° |
| 2026-05-08 07:10 | -37.11535 | 174.55256 | 4102 ft | 177 kts | 340° |
| 2026-05-08 07:10 | -37.10422 | 174.54780 | 3956 ft | 161 kts | 340° |
| 2026-05-08 07:10 | -37.09393 | 174.54419 | 3842 ft | 148 kts | 352° |
| 2026-05-08 07:10 | -37.08380 | 174.54649 | 3675 ft | 154 kts | 17° |
| 2026-05-08 07:11 | -37.07564 | 174.55585 | 3536 ft | 174 kts | 48° |
| 2026-05-08 07:11 | -37.07129 | 174.57058 | 3318 ft | 181 kts | 59° |
| 2026-05-08 07:11 | -37.06731 | 174.58529 | 3079 ft | 181 kts | 59° |
| 2026-05-08 07:11 | -37.06324 | 174.60012 | 2840 ft | 178 kts | 57° |
| 2026-05-08 07:12 | -37.05925 | 174.61469 | 2596 ft | 175 kts | 57° |
| 2026-05-08 07:12 | -37.05537 | 174.62891 | 2374 ft | 165 kts | 56° |
| 2026-05-08 07:12 | -37.05176 | 174.64212 | 2161 ft | 158 kts | 57° |
| 2026-05-08 07:12 | -37.04834 | 174.65462 | 1960 ft | 145 kts | 58° |
| 2026-05-08 07:13 | -37.04518 | 174.66613 | 1781 ft | 136 kts | 56° |
| 2026-05-08 07:13 | -37.04220 | 174.67694 | 1585 ft | 128 kts | 56° |
| 2026-05-08 07:13 | -37.03931 | 174.68739 | 1413 ft | 125 kts | 59° |
| 2026-05-08 07:13 | -37.03644 | 174.69773 | 1242 ft | 127 kts | 58° |
| 2026-05-08 07:14 | -37.03353 | 174.70826 | 1069 ft | 130 kts | 59° |
| 2026-05-08 07:14 | -37.03059 | 174.71892 | 902 ft | 130 kts | 62° |
| 2026-05-08 07:14 | -37.02761 | 174.72973 | 735 ft | 133 kts | 62° |
| 2026-05-08 07:14 | -37.02468 | 174.74040 | 567 ft | 127 kts | 66° |
| 2026-05-08 07:15 | -37.02181 | 174.75081 | 398 ft | 128 kts | 66° |
| 2026-05-08 07:15 | -37.01898 | 174.76141 | 239 ft | 129 kts | 66° |
| 2026-05-08 07:15 | -37.01601 | 174.77202 | 56 ft | 128 kts | 62° |
| 2026-05-08 07:15 | -37.01318 | 174.78149 | 26 ft | 95 kts | 71° |
| 2026-05-08 07:16 | -37.01175 | 174.78733 | 25 ft | 43 kts | 72° |
| 2026-05-08 07:16 | -37.01068 | 174.78951 | 27 ft | 23 kts | 48° |
| 2026-05-08 07:16 | -37.01005 | 174.79028 | 28 ft | 0 kts | 41° |
| 2026-05-08 07:16 | -37.01004 | 174.79030 | 27 ft | 1 kts | 41° |
| 2026-05-08 07:17 | -37.00985 | 174.79049 | 28 ft | 6 kts | 40° |
| 2026-05-08 07:17 | -37.00947 | 174.79091 | 29 ft | 8 kts | 41° |
| 2026-05-08 07:17 | -37.00893 | 174.79121 | 28 ft | 8 kts | 8° |
| 2026-05-08 07:17 | -37.00834 | 174.79107 | 29 ft | 9 kts | 336° |
| 2026-05-08 07:18 | -37.00789 | 174.79081 | 29 ft | 6 kts | 341° |
| 2026-05-08 07:18 | -37.00752 | 174.79065 | 27 ft | 5 kts | 340° |
| 2026-05-08 07:18 | -37.00732 | 174.79056 | 25 ft | 0 kts | 341° |
| 2026-05-08 07:18 | -37.00731 | 174.79056 | 25 ft | 1 kts | 341° |
| 2026-05-08 07:19 | -37.00724 | 174.79053 | 25 ft | 0 kts | 341° |